SPJL/JUL METAR and TAF weather

Enter ICAO airport designator
Station Type Date Time Source
SPJL METAR 2021/04/17 19:00 UTC NOAA

SPJL 171900Z 31004KT CAVOK 18/M10 Q1033 RMK PP000


Station Type Date Time Source
SPJL Decoded METAR 2021/04/17 19:00 UTC NOAA

Juliaca, Peru (SPJL) 15-29S 070-09W 3827M
Apr 17, 2021 - 03:00 PM EDT / 2021.04.17 1900 UTC
Wind: from the NW (310 degrees) at 5 MPH (4 KT):0
Visibility: greater than 7 mile(s):0
Temperature: 64 F (18 C)
Dew Point: 14 F (-10 C)
Relative Humidity: 13%
Pressure (altimeter): 30.50 in. Hg (1033 hPa)
ob: SPJL 171900Z 31004KT CAVOK 18/M10 Q1033 RMK PP000
cycle: 19

Station Type Date Time Source
SPJL TAF 2021/04/17 18:33 UTC NOAA

TAF SPJL 171710Z 1718/1818 12008KT CAVOK TX18/1719Z TN01/1810Z
FM180000 22003KT CAVOK

Example: see airport list